createdAt,value
2023-05-04T00:01:34.410Z,100912.54
2023-05-04T00:04:38.702Z,100916.27
2023-05-04T00:07:45.815Z,100915.17
2023-05-04T00:10:33.507Z,100914.81
2023-05-04T00:13:10.669Z,100920.19
2023-05-04T00:15:52.557Z,100925.08
2023-05-04T00:19:23.134Z,100922.65
2023-05-04T00:22:23.411Z,100926.90
2023-05-04T00:25:01.962Z,100927.34
2023-05-04T00:27:41.244Z,100926.35
2023-05-04T00:30:16.797Z,100921.66
2023-05-04T00:32:51.383Z,100923.89
2023-05-04T00:35:39.487Z,100924.06
2023-05-04T00:38:22.389Z,100926.98
2023-05-04T00:41:17.486Z,100924.24
2023-05-04T00:44:14.221Z,100929.20
2023-05-04T00:47:07.435Z,100934.20
2023-05-04T00:56:04.671Z,100935.98
2023-05-04T00:58:46.359Z,100921.88
2023-05-04T01:01:27.084Z,100932.00
2023-05-04T01:04:31.838Z,100937.98
2023-05-04T01:07:57.390Z,100937.05
2023-05-04T01:10:41.183Z,100936.79
2023-05-04T01:13:29.516Z,100934.47
2023-05-04T01:16:19.870Z,100934.45
2023-05-04T01:19:12.658Z,100937.39
2023-05-04T01:21:57.489Z,100935.50
2023-05-04T01:24:35.977Z,100936.11
2023-05-04T01:27:19.883Z,100939.34
2023-05-04T01:30:20.714Z,100942.35
2023-05-04T01:33:14.045Z,100934.73
2023-05-04T01:36:10.596Z,100931.59
2023-05-04T01:38:56.014Z,100926.92
2023-05-04T01:42:05.068Z,100926.48
2023-05-04T01:44:44.074Z,100928.01
2023-05-04T01:47:19.995Z,100926.36
2023-05-04T01:49:54.018Z,100923.05
2023-05-04T01:52:26.159Z,100923.32
2023-05-04T01:55:05.598Z,100926.84
2023-05-04T01:57:35.555Z,100929.31
2023-05-04T02:00:13.711Z,100929.02
2023-05-04T02:02:54.885Z,100934.13
2023-05-04T02:05:47.363Z,100931.07
2023-05-04T02:08:29.769Z,100929.70
2023-05-04T02:11:56.861Z,100920.95
2023-05-04T02:14:52.033Z,100915.93
2023-05-04T02:17:52.319Z,100921.45
2023-05-04T02:20:51.904Z,100922.20
2023-05-04T02:23:42.856Z,100922.95
2023-05-04T02:26:14.937Z,100923.52
2023-05-04T02:28:53.150Z,100921.75
2023-05-04T02:31:27.225Z,100917.62
2023-05-04T02:34:22.040Z,100913.75
2023-05-04T02:36:59.547Z,100912.80
2023-05-04T02:39:36.119Z,100917.80
2023-05-04T02:42:37.072Z,100914.66
2023-05-04T02:45:14.823Z,100914.75
2023-05-04T02:48:11.661Z,100906.60
2023-05-04T02:50:51.193Z,100902.41
2023-05-04T02:54:02.286Z,100902.74
2023-05-04T02:56:40.965Z,100897.63
2023-05-04T02:59:58.541Z,100900.79
2023-05-04T03:02:33.380Z,100904.67
2023-05-04T03:05:35.223Z,100906.48
2023-05-04T03:08:08.318Z,100894.63
2023-05-04T03:10:52.815Z,100892.55
2023-05-04T03:13:29.028Z,100893.70
2023-05-04T03:17:45.658Z,100901.20
2023-05-04T03:20:25.967Z,100902.61
2023-05-04T03:23:40.605Z,100901.58
2023-05-04T03:26:28.557Z,100901.37
2023-05-04T03:29:07.471Z,100901.94
2023-05-04T03:31:40.420Z,100903.83
2023-05-04T03:34:33.214Z,100906.82
2023-05-04T03:37:20.628Z,100909.98
2023-05-04T03:40:00.470Z,100908.45
2023-05-04T03:43:16.230Z,100906.52
2023-05-04T03:46:24.540Z,100909.38
2023-05-04T03:49:01.241Z,100910.15
2023-05-04T03:51:59.589Z,100905.40
2023-05-04T03:54:33.394Z,100910.05
2023-05-04T03:57:37.031Z,100914.03
2023-05-04T04:04:00.792Z,100917.02
2023-05-04T04:11:01.179Z,100912.02
2023-05-04T04:13:58.990Z,100907.36
2023-05-04T04:17:33.448Z,100910.54
2023-05-04T04:20:26.569Z,100912.02
2023-05-04T04:23:09.742Z,100910.38
2023-05-04T04:26:01.378Z,100913.14
2023-05-04T04:28:32.247Z,100896.28
2023-05-04T04:34:47.356Z,100923.64
2023-05-04T04:48:37.561Z,100929.42
2023-05-04T04:56:51.588Z,100934.46
2023-05-04T04:59:58.403Z,100907.09
2023-05-04T05:03:29.733Z,100924.30
2023-05-04T05:06:19.564Z,100915.65
2023-05-04T05:12:38.305Z,100917.80
2023-05-04T05:19:22.209Z,100923.14
2023-05-04T05:22:53.973Z,100917.83
2023-05-04T05:35:46.699Z,100901.59
2023-05-04T05:36:44.689Z,100906.20
2023-05-04T05:50:42.552Z,100914.13
2023-05-04T06:02:48.765Z,100913.20
2023-05-04T06:06:46.227Z,100911.28
2023-05-04T06:09:49.845Z,100912.64
2023-05-04T06:22:25.780Z,100916.38
2023-05-04T06:25:50.833Z,100924.30
2023-05-04T06:37:43.630Z,100921.33
2023-05-04T06:41:17.614Z,100931.98
2023-05-04T06:44:18.131Z,100933.55
2023-05-04T06:47:11.983Z,100923.05
2023-05-04T06:49:48.581Z,100922.89
2023-05-04T06:52:57.449Z,100917.39
2023-05-04T06:55:55.430Z,100913.36
2023-05-04T07:02:47.070Z,100912.73
2023-05-04T07:05:37.794Z,100907.02
2023-05-04T07:13:46.104Z,100908.20
2023-05-04T07:22:27.546Z,100901.89
2023-05-04T07:30:13.830Z,100905.39
2023-05-04T07:33:31.721Z,100906.55
2023-05-04T07:36:49.416Z,100898.95
2023-05-04T07:39:31.146Z,100900.05
2023-05-04T07:46:26.045Z,100904.14
2023-05-04T07:49:43.715Z,100900.09
2023-05-04T07:52:40.995Z,100898.82
2023-05-04T07:56:02.360Z,100903.32
2023-05-04T07:58:51.779Z,100902.05
2023-05-04T08:01:48.063Z,100899.73
2023-05-04T08:04:45.928Z,100898.83
2023-05-04T08:07:17.949Z,100906.16
2023-05-04T08:10:01.126Z,100904.73
2023-05-04T08:13:30.576Z,100897.95
2023-05-04T08:17:18.805Z,100893.52
2023-05-04T08:20:14.297Z,100892.37
2023-05-04T08:24:04.133Z,100888.65
2023-05-04T08:28:04.817Z,100883.10
2023-05-04T08:30:58.328Z,100884.15
2023-05-04T08:34:47.326Z,100876.77
2023-05-04T08:46:10.561Z,100874.16
2023-05-04T09:16:20.913Z,100853.52
2023-05-04T09:19:08.830Z,100857.45
2023-05-04T09:22:53.133Z,100848.67
2023-05-04T09:25:50.031Z,100855.04
2023-05-04T09:40:04.948Z,100841.67
2023-05-04T09:43:25.658Z,100836.58
2023-05-04T09:56:08.528Z,100824.91
2023-05-04T09:59:16.377Z,100822.87
2023-05-04T10:02:38.336Z,100819.70
2023-05-04T10:05:22.838Z,100819.35
2023-05-04T10:08:58.778Z,100813.85
2023-05-04T10:16:23.804Z,100809.64
2023-05-04T10:19:32.560Z,100816.39
2023-05-04T10:23:14.106Z,100809.42
2023-05-04T10:27:24.130Z,100806.13
2023-05-04T10:52:28.548Z,100776.94
2023-05-04T10:55:45.329Z,100786.39
2023-05-04T11:07:59.390Z,100774.13
2023-05-04T11:11:23.521Z,100768.77
2023-05-04T11:14:14.437Z,100768.27
2023-05-04T11:18:09.232Z,100766.11
2023-05-04T11:25:37.193Z,100756.48
2023-05-04T11:33:46.195Z,100733.66
2023-05-04T11:36:50.035Z,100735.56
2023-05-04T11:43:45.317Z,100728.73
2023-05-04T11:51:51.308Z,100715.74
2023-05-04T12:02:16.376Z,100706.08
2023-05-04T12:05:25.386Z,100689.96
2023-05-04T12:08:49.910Z,100702.67
2023-05-04T12:11:43.212Z,100692.89
2023-05-04T12:14:35.081Z,100685.07
2023-05-04T12:18:40.429Z,100683.95
2023-05-04T12:22:35.129Z,100677.98
2023-05-04T12:26:05.974Z,100676.15
2023-05-04T12:29:10.593Z,100672.95
2023-05-04T12:32:46.657Z,100666.02
2023-05-04T12:36:40.464Z,100665.36
2023-05-04T12:45:27.520Z,100652.66
2023-05-04T12:48:29.163Z,100654.79
2023-05-04T12:51:28.044Z,100653.30
2023-05-04T12:55:24.693Z,100648.35
2023-05-04T12:59:16.909Z,100641.84
2023-05-04T13:02:19.803Z,100633.28
2023-05-04T13:14:42.949Z,100623.48
2023-05-04T13:17:58.178Z,100623.75
2023-05-04T13:20:56.109Z,100619.83
2023-05-04T13:23:39.508Z,100614.58
2023-05-04T13:26:36.990Z,100612.36
2023-05-04T13:46:39.751Z,100603.70
2023-05-04T13:49:34.090Z,100595.34
2023-05-04T13:52:47.307Z,100585.10
2023-05-04T13:56:14.554Z,100579.91
2023-05-04T13:59:58.386Z,100582.87
2023-05-04T14:04:09.038Z,100587.59
2023-05-04T14:07:29.467Z,100581.15
2023-05-04T14:11:37.621Z,100587.84
2023-05-04T14:14:41.136Z,100582.09
2023-05-04T14:17:21.924Z,100580.95
2023-05-04T14:21:07.959Z,100579.23
2023-05-04T14:24:22.641Z,100570.75
2023-05-04T14:27:36.595Z,100567.55
2023-05-04T14:35:10.932Z,100561.79
2023-05-04T14:38:05.860Z,100557.16
2023-05-04T14:40:45.479Z,100559.48
2023-05-04T14:48:03.490Z,100549.17
2023-05-04T14:51:07.652Z,100554.44
2023-05-04T14:54:22.122Z,100551.21
2023-05-04T15:07:14.752Z,100552.36
2023-05-04T15:10:15.707Z,100547.04
2023-05-04T15:13:45.009Z,100543.50
2023-05-04T15:16:48.366Z,100543.94
2023-05-04T15:19:59.413Z,100546.98
2023-05-04T15:24:04.906Z,100551.59
2023-05-04T15:27:06.492Z,100551.11
2023-05-04T15:30:02.790Z,100543.77
2023-05-04T15:45:12.096Z,100543.95
2023-05-04T16:13:07.636Z,100538.92
2023-05-04T16:16:17.067Z,100549.48
2023-05-04T16:24:29.735Z,100558.08
2023-05-04T16:27:29.740Z,100560.09
2023-05-04T16:31:00.426Z,100559.21
2023-05-04T16:34:37.036Z,100559.86
2023-05-04T16:42:05.194Z,100563.08
2023-05-04T16:44:54.473Z,100571.70
2023-05-04T16:47:53.783Z,100564.91
2023-05-04T16:59:25.291Z,100565.94
2023-05-04T17:02:26.213Z,100564.32
2023-05-04T17:10:46.260Z,100569.56
2023-05-04T17:39:33.203Z,100590.09
2023-05-04T17:57:59.359Z,100574.71
2023-05-04T18:01:39.705Z,100588.30
2023-05-04T18:05:26.690Z,100591.63
2023-05-04T18:12:24.161Z,100593.17
2023-05-04T18:15:48.948Z,100591.23
2023-05-04T18:19:55.757Z,100585.35
2023-05-04T18:28:25.677Z,100582.55
2023-05-04T18:50:28.492Z,100586.19
2023-05-04T18:54:26.374Z,100597.64
2023-05-04T18:57:57.140Z,100592.65
2023-05-04T19:00:56.240Z,100595.27
2023-05-04T19:08:18.708Z,100587.14
2023-05-04T19:11:19.762Z,100591.64
2023-05-04T19:14:15.880Z,100579.88
2023-05-04T19:26:25.589Z,100575.98
2023-05-04T19:30:24.581Z,100575.04
2023-05-04T19:33:45.022Z,100575.63
2023-05-04T19:44:22.533Z,100578.02
2023-05-04T19:50:47.338Z,100574.21
2023-05-04T19:54:33.846Z,100572.14
2023-05-04T19:57:30.896Z,100574.70
2023-05-04T20:00:26.068Z,100573.99
2023-05-04T20:07:50.731Z,100575.59
2023-05-04T20:15:54.976Z,100578.70
2023-05-04T20:19:25.641Z,100575.81
2023-05-04T20:22:25.630Z,100575.20
2023-05-04T20:25:23.819Z,100574.28
2023-05-04T20:28:09.370Z,100576.09
2023-05-04T20:31:12.083Z,100572.70
2023-05-04T20:39:21.184Z,100564.02
2023-05-04T20:42:46.253Z,100557.24
2023-05-04T20:45:56.869Z,100570.59
2023-05-04T20:49:57.504Z,100578.77
2023-05-04T20:53:08.050Z,100581.60
2023-05-04T20:56:10.678Z,100580.36
2023-05-04T20:59:59.168Z,100578.71
2023-05-04T21:04:00.188Z,100577.73
2023-05-04T21:06:48.351Z,100577.67
2023-05-04T21:09:51.671Z,100579.45
2023-05-04T21:12:29.141Z,100580.61
2023-05-04T21:20:04.544Z,100575.50
2023-05-04T21:22:38.381Z,100574.38
2023-05-04T21:25:52.083Z,100574.98
2023-05-04T21:28:35.726Z,100571.53
2023-05-04T21:31:26.189Z,100571.77
2023-05-04T21:34:25.862Z,100571.92
2023-05-04T21:36:56.918Z,100572.33
2023-05-04T21:40:24.707Z,100573.27
2023-05-04T21:42:57.630Z,100578.32
2023-05-04T21:45:38.979Z,100578.22
2023-05-04T21:48:16.610Z,100575.54
2023-05-04T21:51:20.504Z,100579.16
2023-05-04T21:54:47.803Z,100577.60
2023-05-04T21:57:19.577Z,100570.14
2023-05-04T22:00:50.469Z,100575.76
2023-05-04T22:03:23.569Z,100580.83
2023-05-04T22:07:11.501Z,100581.14
2023-05-04T22:09:46.551Z,100578.90
2023-05-04T22:13:02.522Z,100574.98
2023-05-04T22:16:03.440Z,100568.35
2023-05-04T22:19:06.548Z,100566.11
2023-05-04T22:21:47.609Z,100564.83
2023-05-04T22:24:39.214Z,100561.09
2023-05-04T22:27:20.037Z,100557.27
2023-05-04T22:29:59.062Z,100557.86
2023-05-04T22:32:35.623Z,100557.02
2023-05-04T22:35:33.432Z,100556.02
2023-05-04T22:38:14.856Z,100560.36
2023-05-04T22:41:42.527Z,100558.94
2023-05-04T22:44:33.988Z,100559.30
2023-05-04T22:47:18.714Z,100558.29
2023-05-04T22:50:16.897Z,100554.26
2023-05-04T22:53:05.561Z,100553.06
2023-05-04T22:55:50.358Z,100548.44
2023-05-04T22:59:21.053Z,100549.58
2023-05-04T23:02:02.694Z,100550.02
2023-05-04T23:04:47.049Z,100552.99
2023-05-04T23:07:32.284Z,100556.84
2023-05-04T23:10:13.819Z,100555.36
2023-05-04T23:12:50.080Z,100553.27
2023-05-04T23:15:46.080Z,100547.73
2023-05-04T23:18:20.932Z,100552.55
2023-05-04T23:21:13.500Z,100547.44
2023-05-04T23:24:00.226Z,100554.36
2023-05-04T23:26:39.151Z,100556.96
2023-05-04T23:29:20.164Z,100560.06
2023-05-04T23:31:57.871Z,100562.88
2023-05-04T23:34:30.701Z,100561.01
2023-05-04T23:37:09.526Z,100558.02
2023-05-04T23:39:42.822Z,100558.69
2023-05-04T23:42:18.929Z,100557.98
2023-05-04T23:44:54.678Z,100552.96
2023-05-04T23:48:12.630Z,100550.89
2023-05-04T23:51:14.274Z,100549.48
2023-05-04T23:54:09.635Z,100548.72
2023-05-04T23:56:43.199Z,100550.39
2023-05-04T23:59:32.402Z,100544.21
